Time;durP1;ratioP1;P1;durP2;ratioP2;P2;SDS_P1;SDS_P2;PMS_P1;PMS_P2;Temp;Humidity;BMP_temperature;BMP_pressure;BME280_temperature;BME280_humidity;BME280_pressure;Samples;Min_cycle;Max_cycle;Signal;HPM_P1;HPM_P2
2022/01/05 00:01:21;;;;;;;12.15;3.30;;;;;;;;;;5023557;28;20205;-73
2022/01/05 00:03:47;;;;;;;12.15;3.58;;;;;;;;;;5039212;28;20059;-74
2022/01/05 00:06:13;;;;;;;7.75;3.08;;;;;;;;;;5042359;28;21403;-73
2022/01/05 00:08:39;;;;;;;11.20;3.20;;;;;;;;;;5028889;28;20047;-73
2022/01/05 00:11:07;;;;;;;11.25;3.38;;;;;;;;;;5025031;28;20056;-73
2022/01/05 00:13:33;;;;;;;13.07;3.60;;;;;;;;;;5045577;28;20053;-73
2022/01/05 00:15:59;;;;;;;11.75;3.10;;;;;;;;;;5044406;28;20048;-73
2022/01/05 00:18:25;;;;;;;6.95;2.80;;;;;;;;;;5045513;28;20052;-73
2022/01/05 00:20:51;;;;;;;12.30;3.13;;;;;;;;;;5044705;28;20055;-73
2022/01/05 00:23:17;;;;;;;7.80;2.90;;;;;;;;;;5042217;28;20527;-73
2022/01/05 00:25:43;;;;;;;11.25;3.67;;;;;;;;;;5028064;28;20053;-73
2022/01/05 00:28:09;;;;;;;7.93;3.10;;;;;;;;;;5029138;28;20064;-73
2022/01/05 00:30:35;;;;;;;12.00;3.13;;;;;;;;;;5045805;28;20040;-73
2022/01/05 00:33:02;;;;;;;12.27;3.35;;;;;;;;;;5045079;28;20092;-73
2022/01/05 00:35:28;;;;;;;11.95;2.75;;;;;;;;;;5025566;28;20045;-73
2022/01/05 00:37:57;;;;;;;10.15;3.22;;;;;;;;;;5043950;28;20131;-73
2022/01/05 00:40:23;;;;;;;10.73;3.42;;;;;;;;;;5046019;28;20499;-73
2022/01/05 00:42:49;;;;;;;12.05;4.18;;;;;;;;;;5047159;28;20206;-73
2022/01/05 00:45:15;;;;;;;10.10;2.95;;;;;;;;;;5041046;28;20048;-73
2022/01/05 00:47:41;;;;;;;9.98;3.40;;;;;;;;;;5044449;28;20052;-73
2022/01/05 00:50:13;;;;;;;18.73;3.35;;;;;;;;;;5042050;28;20178;-73
2022/01/05 00:52:39;;;;;;;14.18;3.80;;;;;;;;;;5042337;28;20045;-73
2022/01/05 00:55:06;;;;;;;17.63;4.43;;;;;;;;;;5025859;28;20393;-73
2022/01/05 00:57:32;;;;;;;10.98;3.88;;;;;;;;;;5041595;28;20060;-74
2022/01/05 00:59:58;;;;;;;13.10;3.30;;;;;;;;;;5043103;28;20053;-73
2022/01/05 01:02:24;;;;;;;10.75;3.38;;;;;;;;;;5026331;28;20044;-74
2022/01/05 01:04:50;;;;;;;13.05;3.60;;;;;;;;;;5022633;28;20818;-73
2022/01/05 01:07:16;;;;;;;10.18;3.13;;;;;;;;;;5026207;28;20041;-72
2022/01/05 01:09:42;;;;;;;13.48;3.25;;;;;;;;;;5043604;28;20378;-72
2022/01/05 01:12:09;;;;;;;14.52;3.67;;;;;;;;;;5042265;28;20041;-73
2022/01/05 01:14:35;;;;;;;14.95;3.85;;;;;;;;;;5025922;28;20045;-73
2022/01/05 01:17:01;;;;;;;12.50;3.53;;;;;;;;;;5040360;28;20083;-72
2022/01/05 01:19:26;;;;;;;15.30;3.60;;;;;;;;;;5043211;28;22681;-73
2022/01/05 01:21:53;;;;;;;14.27;3.33;;;;;;;;;;5024421;28;20040;-73
2022/01/05 01:24:19;;;;;;;9.98;3.20;;;;;;;;;;5022904;28;20071;-73
2022/01/05 01:26:45;;;;;;;12.75;3.58;;;;;;;;;;5043433;28;20045;-73
2022/01/05 01:29:11;;;;;;;12.27;3.30;;;;;;;;;;5041902;28;20091;-72
2022/01/05 01:31:37;;;;;;;9.73;3.05;;;;;;;;;;5025971;28;20095;-73
2022/01/05 01:34:03;;;;;;;15.60;3.38;;;;;;;;;;5040521;28;20140;-73
2022/01/05 01:36:29;;;;;;;12.70;3.47;;;;;;;;;;5040501;28;20128;-73
2022/01/05 01:38:55;;;;;;;15.00;3.05;;;;;;;;;;5044898;28;20451;-74
2022/01/05 01:41:21;;;;;;;17.33;3.78;;;;;;;;;;5025580;28;20048;-73
2022/01/05 01:43:47;;;;;;;10.90;3.08;;;;;;;;;;5044610;28;20045;-73
2022/01/05 01:46:13;;;;;;;13.18;3.05;;;;;;;;;;5024865;28;20037;-72
2022/01/05 01:48:40;;;;;;;13.82;3.60;;;;;;;;;;5024120;28;20045;-73
2022/01/05 01:51:06;;;;;;;13.60;3.63;;;;;;;;;;5040881;28;20095;-73
2022/01/05 01:53:32;;;;;;;11.93;2.78;;;;;;;;;;5024109;28;20048;-73
2022/01/05 01:56:00;;;;;;;11.00;2.92;;;;;;;;;;5039778;28;20056;-73
2022/01/05 01:58:31;;;;;;;8.88;3.20;;;;;;;;;;5045351;28;20091;-73
2022/01/05 02:00:57;;;;;;;11.00;2.92;;;;;;;;;;5044158;28;20045;-73
2022/01/05 02:03:23;;;;;;;6.82;2.58;;;;;;;;;;5042065;28;20162;-73
2022/01/05 02:05:49;;;;;;;18.67;3.67;;;;;;;;;;5037400;28;20045;-72
2022/01/05 02:08:15;;;;;;;8.63;2.88;;;;;;;;;;5041694;28;20053;-73
2022/01/05 02:10:43;;;;;;;11.32;3.17;;;;;;;;;;5027013;28;20044;-72
2022/01/05 02:13:09;;;;;;;8.40;3.22;;;;;;;;;;5019788;28;20053;-73
2022/01/05 02:15:35;;;;;;;10.90;3.05;;;;;;;;;;5047087;28;20381;-73
2022/01/05 02:20:28;;;;;;;11.48;2.90;;;;;;;;;;5024717;28;20063;-73
2022/01/05 02:22:54;;;;;;;16.27;3.05;;;;;;;;;;5021727;28;20056;-74
2022/01/05 02:25:20;;;;;;;11.75;2.90;;;;;;;;;;5042193;28;20159;-74
2022/01/05 02:27:47;;;;;;;10.73;3.10;;;;;;;;;;5048130;28;20041;-73
2022/01/05 02:30:15;;;;;;;8.80;2.63;;;;;;;;;;5027369;28;20514;-73
2022/01/05 02:32:41;;;;;;;8.85;2.33;;;;;;;;;;5042973;28;20516;-73
2022/01/05 02:35:09;;;;;;;13.75;3.08;;;;;;;;;;5045719;28;20049;-73
2022/01/05 02:37:45;;;;;;;9.25;3.03;;;;;;;;;;5024199;28;20033;-73
2022/01/05 02:40:12;;;;;;;18.48;3.83;;;;;;;;;;5041071;28;20067;-73
2022/01/05 02:42:38;;;;;;;13.70;3.03;;;;;;;;;;5040876;28;20119;-73
2022/01/05 02:45:04;;;;;;;9.70;2.88;;;;;;;;;;5023307;28;20495;-74
2022/01/05 02:47:30;;;;;;;12.82;3.10;;;;;;;;;;5025232;28;20041;-73
2022/01/05 02:50:00;;;;;;;9.40;3.25;;;;;;;;;;5023949;28;21741;-74
2022/01/05 02:52:27;;;;;;;12.10;2.50;;;;;;;;;;5039571;28;21574;-73
2022/01/05 02:54:53;;;;;;;10.27;2.88;;;;;;;;;;5041251;28;20048;-73
2022/01/05 02:57:19;;;;;;;8.63;2.30;;;;;;;;;;5041218;28;20485;-74
2022/01/05 02:59:45;;;;;;;8.15;2.10;;;;;;;;;;5039820;28;20124;-73
2022/01/05 03:02:11;;;;;;;13.00;2.95;;;;;;;;;;5043878;28;20131;-72
2022/01/05 03:04:38;;;;;;;10.35;2.70;;;;;;;;;;5024328;28;20068;-72
2022/01/05 03:07:04;;;;;;;9.10;2.88;;;;;;;;;;5022756;28;20107;-73
2022/01/05 03:09:30;;;;;;;14.07;3.22;;;;;;;;;;5039353;28;20045;-73
2022/01/05 03:11:56;;;;;;;10.80;2.50;;;;;;;;;;5040039;28;20114;-73
2022/01/05 03:14:22;;;;;;;11.85;2.95;;;;;;;;;;5037157;28;20044;-73
2022/01/05 03:16:48;;;;;;;9.40;2.70;;;;;;;;;;5020267;28;20045;-74
2022/01/05 03:19:14;;;;;;;9.75;2.70;;;;;;;;;;5036134;28;20045;-73
2022/01/05 03:21:40;;;;;;;10.93;2.80;;;;;;;;;;5022462;28;20045;-72
2022/01/05 03:24:07;;;;;;;11.55;3.40;;;;;;;;;;5020433;28;20127;-73
2022/01/05 03:26:32;;;;;;;14.60;3.25;;;;;;;;;;5024768;28;20098;-73
2022/01/05 03:28:59;;;;;;;14.55;3.33;;;;;;;;;;5040855;28;20041;-73
2022/01/05 03:31:27;;;;;;;17.70;3.70;;;;;;;;;;5025808;28;20049;-73
2022/01/05 03:33:53;;;;;;;10.93;3.65;;;;;;;;;;5022846;28;20106;-73
2022/01/05 03:36:19;;;;;;;18.15;4.38;;;;;;;;;;5024074;28;20052;-73
2022/01/05 03:38:45;;;;;;;13.98;3.58;;;;;;;;;;5021805;28;20049;-73
2022/01/05 03:41:12;;;;;;;11.68;3.30;;;;;;;;;;5024829;28;20072;-73
2022/01/05 03:43:38;;;;;;;13.25;3.50;;;;;;;;;;5026868;28;20132;-73
2022/01/05 03:46:04;;;;;;;15.23;3.33;;;;;;;;;;5045553;28;20049;-73
2022/01/05 03:48:31;;;;;;;16.50;3.75;;;;;;;;;;5047072;28;20048;-73
2022/01/05 03:50:57;;;;;;;15.57;3.65;;;;;;;;;;5026927;28;20107;-73
2022/01/05 03:53:23;;;;;;;19.40;3.58;;;;;;;;;;5044877;28;20053;-73
2022/01/05 03:55:49;;;;;;;14.77;4.28;;;;;;;;;;5042326;28;20402;-73
2022/01/05 03:58:15;;;;;;;13.30;3.63;;;;;;;;;;5044819;28;20095;-72
2022/01/05 04:00:43;;;;;;;9.93;3.15;;;;;;;;;;5043002;28;20106;-73
2022/01/05 04:03:09;;;;;;;10.40;3.30;;;;;;;;;;5048575;28;20045;-73
2022/01/05 04:05:35;;;;;;;15.60;3.70;;;;;;;;;;5027425;28;20060;-73
2022/01/05 04:08:01;;;;;;;15.68;3.30;;;;;;;;;;5043128;28;20077;-74
2022/01/05 04:10:27;;;;;;;16.80;3.45;;;;;;;;;;5028158;28;20492;-73
2022/01/05 04:12:53;;;;;;;11.55;3.03;;;;;;;;;;5043992;28;20072;-73
2022/01/05 04:15:19;;;;;;;13.75;3.55;;;;;;;;;;5044025;28;20731;-73
2022/01/05 04:17:45;;;;;;;18.33;4.13;;;;;;;;;;5044424;28;20163;-73
2022/01/05 04:20:12;;;;;;;10.38;3.80;;;;;;;;;;5045755;28;20049;-72
2022/01/05 04:22:38;;;;;;;18.00;3.35;;;;;;;;;;5042417;28;20045;-73
2022/01/05 04:25:04;;;;;;;16.88;3.80;;;;;;;;;;5044224;28;20124;-73
2022/01/05 04:27:31;;;;;;;11.85;3.22;;;;;;;;;;5029637;28;20491;-73
2022/01/05 04:29:57;;;;;;;18.77;4.03;;;;;;;;;;5035606;28;20053;-74
2022/01/05 04:32:23;;;;;;;21.15;4.47;;;;;;;;;;5048734;28;20059;-74
2022/01/05 04:34:49;;;;;;;13.38;2.97;;;;;;;;;;5051228;28;20053;-73
2022/01/05 04:37:15;;;;;;;11.73;3.28;;;;;;;;;;5027690;28;20135;-74
2022/01/05 04:39:41;;;;;;;13.27;3.45;;;;;;;;;;5050922;28;20048;-74
2022/01/05 04:42:07;;;;;;;15.77;3.70;;;;;;;;;;5050734;28;20128;-73
2022/01/05 04:44:33;;;;;;;15.48;4.25;;;;;;;;;;5045052;28;20404;-74
2022/01/05 04:47:00;;;;;;;18.30;4.28;;;;;;;;;;5042635;28;20041;-74
2022/01/05 04:49:26;;;;;;;21.45;4.68;;;;;;;;;;5028668;28;20033;-74
2022/01/05 04:51:52;;;;;;;20.70;4.50;;;;;;;;;;5022391;28;20056;-73
2022/01/05 04:54:18;;;;;;;17.00;5.07;;;;;;;;;;5041485;28;21388;-73
2022/01/05 04:56:44;;;;;;;15.02;4.18;;;;;;;;;;5043087;28;20041;-73
2022/01/05 04:59:10;;;;;;;17.35;4.25;;;;;;;;;;5042838;28;20547;-73
2022/01/05 05:01:36;;;;;;;16.50;4.68;;;;;;;;;;5041825;28;20393;-74
2022/01/05 05:04:02;;;;;;;20.67;4.07;;;;;;;;;;5026387;28;20051;-74
2022/01/05 05:06:28;;;;;;;21.13;4.70;;;;;;;;;;5042445;28;20795;-73
2022/01/05 05:08:54;;;;;;;23.67;4.57;;;;;;;;;;5042696;28;20180;-74
2022/01/05 05:11:20;;;;;;;19.13;4.10;;;;;;;;;;5029179;28;20499;-74
2022/01/05 05:13:46;;;;;;;18.13;4.25;;;;;;;;;;5040378;28;20617;-73
2022/01/05 05:16:12;;;;;;;22.88;4.85;;;;;;;;;;5034392;28;20128;-73
2022/01/05 05:18:38;;;;;;;18.90;3.53;;;;;;;;;;5021879;28;20049;-74
2022/01/05 05:21:04;;;;;;;17.55;3.95;;;;;;;;;;5026987;28;20099;-74
2022/01/05 05:23:31;;;;;;;16.17;3.65;;;;;;;;;;5019819;28;20096;-74
2022/01/05 05:25:57;;;;;;;17.88;3.50;;;;;;;;;;5039626;28;20500;-74
2022/01/05 05:28:23;;;;;;;17.45;3.78;;;;;;;;;;5025573;28;20041;-74
2022/01/05 05:30:49;;;;;;;16.35;3.95;;;;;;;;;;5036763;28;20044;-73
2022/01/05 05:33:15;;;;;;;14.52;3.63;;;;;;;;;;5021437;28;20073;-73
2022/01/05 05:35:41;;;;;;;16.20;3.65;;;;;;;;;;5019929;28;20140;-73
2022/01/05 05:38:08;;;;;;;22.08;5.45;;;;;;;;;;5039422;28;20457;-73
2022/01/05 05:40:34;;;;;;;27.65;5.18;;;;;;;;;;5023307;28;20063;-73
2022/01/05 05:43:01;;;;;;;23.02;4.18;;;;;;;;;;5041164;28;20495;-72
2022/01/05 05:45:27;;;;;;;16.48;3.50;;;;;;;;;;5023624;28;20130;-73
2022/01/05 05:47:53;;;;;;;15.25;3.25;;;;;;;;;;5040763;28;20041;-73
2022/01/05 05:50:19;;;;;;;16.73;3.85;;;;;;;;;;5025368;28;20048;-72
2022/01/05 05:52:45;;;;;;;16.60;4.20;;;;;;;;;;5041649;28;20056;-72
2022/01/05 05:55:11;;;;;;;14.57;3.78;;;;;;;;;;5022437;28;20041;-73
2022/01/05 05:57:37;;;;;;;20.40;3.90;;;;;;;;;;5040280;28;20127;-73
2022/01/05 06:00:07;;;;;;;15.38;3.90;;;;;;;;;;5028699;28;20053;-73
2022/01/05 06:02:34;;;;;;;14.43;4.20;;;;;;;;;;5024357;28;20045;-73
2022/01/05 06:04:59;;;;;;;18.70;3.28;;;;;;;;;;5038803;28;20045;-73
2022/01/05 06:07:25;;;;;;;12.93;2.55;;;;;;;;;;5026347;28;20055;-73
2022/01/05 06:09:51;;;;;;;14.02;3.65;;;;;;;;;;5022431;28;20207;-72
2022/01/05 06:12:17;;;;;;;12.75;3.08;;;;;;;;;;5024252;28;20055;-72
2022/01/05 06:14:43;;;;;;;13.70;3.28;;;;;;;;;;5036617;28;20373;-72
2022/01/05 06:17:09;;;;;;;14.20;3.60;;;;;;;;;;5037537;28;20396;-72
2022/01/05 06:19:36;;;;;;;12.23;3.05;;;;;;;;;;5022709;28;20036;-72
2022/01/05 06:22:02;;;;;;;16.58;3.50;;;;;;;;;;5016147;28;20045;-72
2022/01/05 06:24:28;;;;;;;13.15;3.28;;;;;;;;;;5038563;28;20044;-71
2022/01/05 06:26:54;;;;;;;14.65;3.53;;;;;;;;;;5041484;28;20048;-73
2022/01/05 06:29:21;;;;;;;19.35;3.78;;;;;;;;;;5023525;28;20045;-72
2022/01/05 06:31:47;;;;;;;16.50;4.35;;;;;;;;;;5035300;28;20071;-73
2022/01/05 06:34:13;;;;;;;15.93;4.05;;;;;;;;;;5038008;28;20098;-72
2022/01/05 06:36:39;;;;;;;20.83;4.15;;;;;;;;;;5041899;28;20056;-73
2022/01/05 06:39:05;;;;;;;26.35;4.93;;;;;;;;;;5023987;28;20152;-72
2022/01/05 06:41:32;;;;;;;18.25;4.00;;;;;;;;;;5019019;28;20041;-73
2022/01/05 06:43:58;;;;;;;15.45;2.90;;;;;;;;;;5039510;28;20045;-73
2022/01/05 06:46:24;;;;;;;8.18;2.40;;;;;;;;;;5023159;28;20053;-73
2022/01/05 06:48:50;;;;;;;16.17;3.03;;;;;;;;;;5039751;28;20158;-73
2022/01/05 06:51:16;;;;;;;11.48;3.20;;;;;;;;;;5040888;28;20045;-72
2022/01/05 06:53:42;;;;;;;22.38;5.65;;;;;;;;;;5041353;28;20045;-72
2022/01/05 06:56:08;;;;;;;24.90;4.38;;;;;;;;;;5042074;28;20036;-73
2022/01/05 06:58:34;;;;;;;20.13;4.25;;;;;;;;;;5024418;28;20136;-73
2022/01/05 07:01:00;;;;;;;18.60;4.25;;;;;;;;;;5022503;28;20445;-73
2022/01/05 07:03:26;;;;;;;20.95;4.55;;;;;;;;;;5042137;28;20114;-73
2022/01/05 07:05:52;;;;;;;20.77;5.15;;;;;;;;;;5025299;28;20060;-72
2022/01/05 07:08:19;;;;;;;24.27;5.50;;;;;;;;;;5041714;28;20847;-73
2022/01/05 07:10:45;;;;;;;21.67;5.80;;;;;;;;;;5044534;28;20488;-72
2022/01/05 07:13:11;;;;;;;30.23;6.22;;;;;;;;;;5023732;28;20037;-73
2022/01/05 07:15:37;;;;;;;24.92;5.75;;;;;;;;;;5043688;28;20531;-73
2022/01/05 07:18:03;;;;;;;18.02;4.25;;;;;;;;;;5029113;28;20041;-73
2022/01/05 07:20:29;;;;;;;17.90;3.90;;;;;;;;;;5046675;28;20084;-73
2022/01/05 07:22:56;;;;;;;19.23;4.07;;;;;;;;;;5046154;28;20087;-72
2022/01/05 07:25:22;;;;;;;23.40;4.78;;;;;;;;;;5044531;28;20041;-73
2022/01/05 07:27:48;;;;;;;24.35;4.95;;;;;;;;;;5031178;28;20107;-74
2022/01/05 07:30:14;;;;;;;26.52;5.80;;;;;;;;;;5044414;28;20041;-73
2022/01/05 07:32:40;;;;;;;24.27;5.07;;;;;;;;;;5033125;28;20049;-73
2022/01/05 07:35:07;;;;;;;22.52;4.80;;;;;;;;;;5044742;28;20506;-74
2022/01/05 07:37:33;;;;;;;24.77;5.13;;;;;;;;;;5028586;28;20118;-74
2022/01/05 07:39:59;;;;;;;19.92;4.43;;;;;;;;;;5032404;28;20493;-74
2022/01/05 07:42:27;;;;;;;25.20;4.70;;;;;;;;;;5033301;28;20075;-74
2022/01/05 07:44:53;;;;;;;16.88;3.65;;;;;;;;;;5033052;28;20492;-73
2022/01/05 07:47:19;;;;;;;17.42;3.40;;;;;;;;;;5033639;28;20136;-74
2022/01/05 07:49:45;;;;;;;14.32;3.55;;;;;;;;;;5052007;28;20485;-74
2022/01/05 07:52:11;;;;;;;18.60;3.78;;;;;;;;;;5050232;28;20162;-74
2022/01/05 07:54:37;;;;;;;16.08;3.00;;;;;;;;;;5034860;28;20083;-74
2022/01/05 07:57:04;;;;;;;12.73;2.55;;;;;;;;;;5051559;28;20047;-73
2022/01/05 07:59:30;;;;;;;9.73;3.60;;;;;;;;;;5033849;28;20040;-75
2022/01/05 08:01:56;;;;;;;16.85;3.53;;;;;;;;;;5036725;28;20234;-74
2022/01/05 08:04:22;;;;;;;19.13;4.68;;;;;;;;;;5035054;28;20488;-74
2022/01/05 08:06:48;;;;;;;23.30;4.40;;;;;;;;;;5049737;28;20476;-74
2022/01/05 08:09:14;;;;;;;23.60;4.78;;;;;;;;;;5053110;28;20556;-75
2022/01/05 08:11:40;;;;;;;21.08;4.53;;;;;;;;;;5032415;28;20135;-75
2022/01/05 08:14:06;;;;;;;25.70;5.00;;;;;;;;;;5032868;28;20044;-75
2022/01/05 08:16:32;;;;;;;27.33;5.82;;;;;;;;;;5033921;28;20136;-75
2022/01/05 08:18:58;;;;;;;18.52;4.43;;;;;;;;;;5052550;28;20399;-75
2022/01/05 08:21:24;;;;;;;18.90;4.10;;;;;;;;;;5031429;28;20132;-74
2022/01/05 08:23:50;;;;;;;15.95;3.58;;;;;;;;;;5052526;28;20106;-75
2022/01/05 08:26:16;;;;;;;14.05;3.63;;;;;;;;;;5027561;28;20054;-75
2022/01/05 08:28:42;;;;;;;14.02;3.58;;;;;;;;;;5032066;28;20072;-73
2022/01/05 08:31:09;;;;;;;19.67;5.32;;;;;;;;;;5049767;28;20044;-74
2022/01/05 08:33:35;;;;;;;21.17;5.47;;;;;;;;;;5029402;28;20052;-74
2022/01/05 08:36:02;;;;;;;26.08;5.20;;;;;;;;;;5050198;28;20076;-75
2022/01/05 08:38:28;;;;;;;22.45;5.20;;;;;;;;;;5052642;28;20078;-74
2022/01/05 08:40:54;;;;;;;19.15;5.18;;;;;;;;;;5048676;28;20052;-73
2022/01/05 08:43:20;;;;;;;21.42;4.55;;;;;;;;;;5033286;28;20048;-74
2022/01/05 08:45:47;;;;;;;20.05;4.78;;;;;;;;;;5031124;28;20048;-74
2022/01/05 08:48:13;;;;;;;17.02;4.03;;;;;;;;;;5050250;28;20139;-74
2022/01/05 08:50:39;;;;;;;21.48;4.35;;;;;;;;;;5033113;28;20045;-74
2022/01/05 08:53:06;;;;;;;13.82;3.63;;;;;;;;;;5029837;28;20664;-74
2022/01/05 08:55:35;;;;;;;9.73;3.30;;;;;;;;;;5049637;28;20053;-74
2022/01/05 08:58:01;;;;;;;20.65;3.63;;;;;;;;;;5028517;28;20037;-74
2022/01/05 09:00:27;;;;;;;22.15;4.57;;;;;;;;;;5047630;28;20083;-72
2022/01/05 09:02:53;;;;;;;23.38;5.28;;;;;;;;;;5051492;28;20040;-74
2022/01/05 09:05:19;;;;;;;21.08;3.88;;;;;;;;;;5031843;28;20045;-73
2022/01/05 09:07:45;;;;;;;14.63;3.97;;;;;;;;;;5047409;28;20037;-74
2022/01/05 09:10:11;;;;;;;18.80;4.20;;;;;;;;;;5051427;28;20480;-74
2022/01/05 09:12:38;;;;;;;19.13;4.38;;;;;;;;;;5033170;28;20859;-74
2022/01/05 09:15:04;;;;;;;18.52;3.83;;;;;;;;;;5050278;28;20044;-74
2022/01/05 09:17:30;;;;;;;18.58;4.10;;;;;;;;;;5032641;28;20064;-74
2022/01/05 09:19:56;;;;;;;17.95;5.30;;;;;;;;;;5032693;28;20154;-74
2022/01/05 09:22:22;;;;;;;16.77;3.95;;;;;;;;;;5031832;28;20049;-73
2022/01/05 09:24:49;;;;;;;22.88;4.63;;;;;;;;;;5030795;28;20683;-74
2022/01/05 09:27:16;;;;;;;16.77;3.63;;;;;;;;;;5046893;28;20594;-73
2022/01/05 09:29:42;;;;;;;19.20;4.43;;;;;;;;;;5030114;28;21612;-74
2022/01/05 09:32:09;;;;;;;15.60;4.22;;;;;;;;;;5031746;28;20041;-74
2022/01/05 09:34:36;;;;;;;21.25;4.28;;;;;;;;;;5048167;28;20053;-74
2022/01/05 09:37:09;;;;;;;15.00;3.88;;;;;;;;;;5050751;28;20041;-74
2022/01/05 09:42:20;;;;;;;15.55;3.42;;;;;;;;;;5032668;28;20045;-74
2022/01/05 09:44:48;;;;;;;19.58;3.97;;;;;;;;;;5050702;28;20040;-74
2022/01/05 09:47:29;;;;;;;20.70;4.32;;;;;;;;;;5032627;28;20049;-73
2022/01/05 09:50:00;;;;;;;16.73;3.95;;;;;;;;;;5029687;28;20045;-74
2022/01/05 09:52:26;;;;;;;20.90;4.30;;;;;;;;;;5050448;28;20092;-74
2022/01/05 09:54:53;;;;;;;19.23;4.57;;;;;;;;;;5048267;28;20037;-73
2022/01/05 09:57:21;;;;;;;24.35;4.50;;;;;;;;;;5050370;28;20508;-73
2022/01/05 09:59:47;;;;;;;26.35;4.90;;;;;;;;;;5049604;28;20512;-73
2022/01/05 10:02:15;;;;;;;24.13;5.35;;;;;;;;;;5049734;28;20049;-73
2022/01/05 10:04:41;;;;;;;19.08;4.25;;;;;;;;;;5049345;28;20488;-74
2022/01/05 10:07:09;;;;;;;6.25;2.58;;;;;;;;;;5046267;28;20657;-73
2022/01/05 10:09:37;;;;;;;9.52;2.17;;;;;;;;;;5029138;28;20519;-74
2022/01/05 10:12:03;;;;;;;3.85;1.50;;;;;;;;;;5030126;28;20393;-73
2022/01/05 10:14:30;;;;;;;5.35;1.70;;;;;;;;;;5048809;28;20132;-74
2022/01/05 10:17:01;;;;;;;8.23;2.30;;;;;;;;;;5031476;28;20045;-73
2022/01/05 10:19:27;;;;;;;12.02;3.10;;;;;;;;;;5031704;28;20045;-73
2022/01/05 10:21:53;;;;;;;8.73;2.67;;;;;;;;;;5031366;28;20048;-74
2022/01/05 10:24:39;;;;;;;10.80;3.03;;;;;;;;;;5030819;28;20047;-74
2022/01/05 10:27:05;;;;;;;13.43;3.38;;;;;;;;;;5032119;28;20048;-74
2022/01/05 10:29:31;;;;;;;18.15;3.78;;;;;;;;;;5030736;28;20073;-74
2022/01/05 10:31:58;;;;;;;12.30;3.70;;;;;;;;;;5049718;28;20095;-74
2022/01/05 10:34:28;;;;;;;12.75;3.42;;;;;;;;;;5028124;28;20067;-74
2022/01/05 10:36:56;;;;;;;14.38;3.58;;;;;;;;;;5031355;28;20488;-74
2022/01/05 10:39:32;;;;;;;14.52;3.78;;;;;;;;;;5049806;28;20088;-74
2022/01/05 10:42:05;;;;;;;14.60;3.53;;;;;;;;;;5029100;28;20124;-74
2022/01/05 10:44:31;;;;;;;13.37;3.67;;;;;;;;;;5028856;28;20048;-74
2022/01/05 10:46:58;;;;;;;16.05;4.80;;;;;;;;;;5048769;28;20447;-73
2022/01/05 10:49:31;;;;;;;23.15;5.32;;;;;;;;;;5048162;28;20067;-73
2022/01/05 10:51:59;;;;;;;20.95;4.30;;;;;;;;;;5047960;28;20782;-73
2022/01/05 10:54:26;;;;;;;19.75;4.68;;;;;;;;;;5032939;28;20059;-74
2022/01/05 10:56:52;;;;;;;17.35;4.55;;;;;;;;;;5047665;28;20056;-73
2022/01/05 10:59:34;;;;;;;19.42;4.90;;;;;;;;;;5049304;28;20037;-73
2022/01/05 11:02:00;;;;;;;21.05;5.10;;;;;;;;;;5027827;28;20037;-73
2022/01/05 11:04:26;;;;;;;26.30;5.43;;;;;;;;;;5030376;28;20095;-74
2022/01/05 11:06:56;;;;;;;27.20;5.50;;;;;;;;;;5026799;28;20132;-74
2022/01/05 11:09:22;;;;;;;22.67;4.60;;;;;;;;;;5032011;28;20132;-73
2022/01/05 11:11:49;;;;;;;15.55;4.07;;;;;;;;;;5041930;28;20041;-74
2022/01/05 11:14:17;;;;;;;11.63;2.20;;;;;;;;;;5031056;28;20052;-74
2022/01/05 11:16:44;;;;;;;7.45;1.73;;;;;;;;;;5045765;28;20044;-74
2022/01/05 11:19:22;;;;;;;10.82;2.15;;;;;;;;;;5042296;28;20044;-73
2022/01/05 11:21:57;;;;;;;9.57;2.58;;;;;;;;;;5022392;28;20516;-73
2022/01/05 11:24:24;;;;;;;12.18;3.00;;;;;;;;;;5029161;28;20049;-74
2022/01/05 11:26:50;;;;;;;10.63;2.70;;;;;;;;;;5028322;28;20057;-73
2022/01/05 11:29:16;;;;;;;7.97;2.72;;;;;;;;;;5048826;28;20048;-74
2022/01/05 11:31:45;;;;;;;10.25;3.55;;;;;;;;;;5048306;28;20048;-74
2022/01/05 11:34:11;;;;;;;11.88;3.20;;;;;;;;;;5046367;28;20061;-74
2022/01/05 11:36:38;;;;;;;14.40;3.35;;;;;;;;;;5048920;28;20045;-74
2022/01/05 11:39:04;;;;;;;10.05;2.78;;;;;;;;;;5048321;28;20094;-74
2022/01/05 11:41:31;;;;;;;12.50;2.85;;;;;;;;;;5030983;28;20088;-74
2022/01/05 11:43:57;;;;;;;10.35;3.17;;;;;;;;;;5031400;28;20045;-74
2022/01/05 11:46:29;;;;;;;15.93;3.47;;;;;;;;;;5047288;28;20396;-74
2022/01/05 11:49:02;;;;;;;18.23;4.15;;;;;;;;;;5049354;28;20037;-75
2022/01/05 11:51:55;;;;;;;17.27;3.85;;;;;;;;;;5049166;28;20124;-74
2022/01/05 11:54:30;;;;;;;19.80;4.20;;;;;;;;;;5027548;28;20136;-74
2022/01/05 11:57:00;;;;;;;15.48;3.95;;;;;;;;;;5031181;28;20040;-74
2022/01/05 11:59:34;;;;;;;14.55;3.45;;;;;;;;;;5029634;28;20132;-74
2022/01/05 12:02:05;;;;;;;16.05;3.63;;;;;;;;;;5048910;28;20123;-74
2022/01/05 12:04:32;;;;;;;12.85;3.95;;;;;;;;;;5052217;28;20580;-74
2022/01/05 12:07:02;;;;;;;10.95;2.88;;;;;;;;;;5052863;28;20036;-74
2022/01/05 12:09:32;;;;;;;7.38;2.47;;;;;;;;;;5050970;28;20388;-73
2022/01/05 12:12:02;;;;;;;10.63;2.78;;;;;;;;;;5035099;28;20041;-74
2022/01/05 12:14:31;;;;;;;12.20;3.33;;;;;;;;;;5048150;28;20049;-74
2022/01/05 12:17:05;;;;;;;14.65;3.40;;;;;;;;;;5030780;28;20102;-73
2022/01/05 12:19:33;;;;;;;16.83;3.45;;;;;;;;;;5028545;28;20045;-73
2022/01/05 12:22:00;;;;;;;19.02;4.28;;;;;;;;;;5024624;28;20059;-73
2022/01/05 12:24:44;;;;;;;20.08;4.18;;;;;;;;;;5044808;28;20051;-73
2022/01/05 12:27:17;;;;;;;14.75;4.25;;;;;;;;;;5026524;28;20126;-74
2022/01/05 12:29:44;;;;;;;18.13;4.88;;;;;;;;;;5031598;28;20052;-73
2022/01/05 12:32:10;;;;;;;15.15;3.63;;;;;;;;;;5031797;28;20405;-74
2022/01/05 12:34:54;;;;;;;20.05;3.67;;;;;;;;;;5032337;28;20057;-74
2022/01/05 12:37:39;;;;;;;18.42;4.20;;;;;;;;;;5032363;28;20135;-74
2022/01/05 12:40:24;;;;;;;17.65;4.70;;;;;;;;;;5034342;28;20045;-74
2022/01/05 12:43:10;;;;;;;18.20;4.25;;;;;;;;;;5028036;28;20037;-74
2022/01/05 12:45:45;;;;;;;17.38;3.80;;;;;;;;;;5050912;28;20120;-74
2022/01/05 12:48:30;;;;;;;19.75;4.63;;;;;;;;;;5052243;28;20072;-74
2022/01/05 12:50:56;;;;;;;16.58;4.38;;;;;;;;;;5032547;28;20471;-74
2022/01/05 12:53:34;;;;;;;18.13;4.43;;;;;;;;;;5033571;28;20392;-74
2022/01/05 12:56:00;;;;;;;18.33;4.82;;;;;;;;;;5049985;28;20515;-73
2022/01/05 12:58:33;;;;;;;19.63;4.75;;;;;;;;;;5033697;28;20458;-73
2022/01/05 13:00:59;;;;;;;23.02;5.43;;;;;;;;;;5033902;28;20053;-74
2022/01/05 13:03:34;;;;;;;19.27;3.78;;;;;;;;;;5047456;28;20493;-74
2022/01/05 13:06:20;;;;;;;13.00;3.67;;;;;;;;;;5032067;28;20521;-74
2022/01/05 13:08:55;;;;;;;14.75;3.03;;;;;;;;;;5032775;28;20128;-74
2022/01/05 13:11:40;;;;;;;17.98;3.35;;;;;;;;;;5046964;28;20124;-74
2022/01/05 13:14:15;;;;;;;14.65;3.80;;;;;;;;;;5047220;28;20396;-74
2022/01/05 13:16:52;;;;;;;11.77;3.13;;;;;;;;;;5031247;28;20045;-74
2022/01/05 13:19:22;;;;;;;16.13;2.88;;;;;;;;;;5050545;28;20045;-74
2022/01/05 13:21:49;;;;;;;13.20;3.40;;;;;;;;;;5030812;28;20049;-74
2022/01/05 13:24:15;;;;;;;14.00;3.45;;;;;;;;;;5050350;28;20043;-74
2022/01/05 13:27:00;;;;;;;17.27;4.30;;;;;;;;;;5031236;28;20077;-74
2022/01/05 13:29:28;;;;;;;10.95;3.22;;;;;;;;;;5048211;28;20270;-74
2022/01/05 13:31:58;;;;;;;13.48;3.70;;;;;;;;;;5050433;28;20128;-74
2022/01/05 13:34:35;;;;;;;15.77;4.03;;;;;;;;;;5028473;28;20048;-74
2022/01/05 13:37:02;;;;;;;16.60;3.58;;;;;;;;;;5051243;28;20084;-74
2022/01/05 13:39:39;;;;;;;16.17;4.22;;;;;;;;;;5031828;28;20044;-74
2022/01/05 13:42:05;;;;;;;14.65;3.58;;;;;;;;;;5031132;28;20056;-74
2022/01/05 13:44:31;;;;;;;16.02;4.07;;;;;;;;;;5050487;28;20583;-74
2022/01/05 13:46:57;;;;;;;16.58;4.53;;;;;;;;;;5031515;28;20068;-74
2022/01/05 13:49:25;;;;;;;18.67;4.60;;;;;;;;;;5031484;28;20088;-74
2022/01/05 13:52:10;;;;;;;20.85;4.93;;;;;;;;;;5030417;28;20048;-74
2022/01/05 13:54:37;;;;;;;19.58;5.25;;;;;;;;;;5026602;28;20101;-74
2022/01/05 13:57:04;;;;;;;25.67;5.32;;;;;;;;;;5033244;28;20040;-74
2022/01/05 13:59:40;;;;;;;23.48;4.88;;;;;;;;;;5031238;28;20055;-74
2022/01/05 14:02:10;;;;;;;19.63;5.10;;;;;;;;;;5028768;28;20049;-74
2022/01/05 14:04:55;;;;;;;24.17;5.18;;;;;;;;;;5028994;28;20103;-74
2022/01/05 14:07:23;;;;;;;17.15;5.05;;;;;;;;;;5048363;28;20059;-74
2022/01/05 14:10:07;;;;;;;22.55;5.13;;;;;;;;;;5048410;28;20451;-74
2022/01/05 14:12:35;;;;;;;22.38;4.85;;;;;;;;;;5049345;28;20063;-74
2022/01/05 14:15:02;;;;;;;21.17;4.57;;;;;;;;;;5032185;28;20037;-76
2022/01/05 14:17:28;;;;;;;17.80;4.43;;;;;;;;;;5048180;28;20045;-74
2022/01/05 14:20:12;;;;;;;19.55;5.07;;;;;;;;;;5029351;28;20489;-74
2022/01/05 14:22:40;;;;;;;22.95;5.63;;;;;;;;;;5049293;28;20053;-74
2022/01/05 14:25:06;;;;;;;20.20;5.13;;;;;;;;;;5047413;28;20041;-74
2022/01/05 14:27:35;;;;;;;13.18;3.95;;;;;;;;;;5034229;28;20139;-74
2022/01/05 14:30:03;;;;;;;26.45;5.18;;;;;;;;;;5032369;28;20052;-74
2022/01/05 14:32:33;;;;;;;16.55;4.15;;;;;;;;;;5048137;28;20055;-75
2022/01/05 14:35:00;;;;;;;15.43;4.30;;;;;;;;;;5046519;28;20583;-74
2022/01/05 14:37:26;;;;;;;20.85;4.63;;;;;;;;;;5031248;28;20056;-73
2022/01/05 14:39:54;;;;;;;17.33;3.90;;;;;;;;;;5031068;28;20497;-73